METAR Data
IDs: Format: Raw Decoded Include TAF

Data at: 1644 UTC 30 Oct 2020

KMLB 301553Z 30005KT 10SM SCT090 24/16 A2999 RMK AO2 SLP153 T02390161

KMLB 301509Z 3015/3112 33009KT P6SM SCT100
  FM301800 36010KT P6SM SKC
  FM310000 02006KT P6SM FEW250


KTIX 301548Z 36008KT 7SM SCT080 25/13 A3001

KTIX 301508Z 3015/3112 36010KT P6SM FEW030
  FM310000 02004KT P6SM SKC


KCOF 301556Z AUTO 34007KT 10SM CLR 25/08 A2999 RMK AO2 SLP160 T02490084 $

TAF KCOF 301000Z 3010/3116 32011KT 9000 -SHRA SCT030 QNH2991INS
  BECMG 3013/3014 34012KT 9999 NSW SCT030 QNH2992INS
  BECMG 3019/3020 03010KT 9999 FEW025 QNH2997INS TX28/3020Z TN21/3011Z


KVRB 301612Z 35007KT 10SM FEW014 25/20 A2999 RMK AO2 T02500200

KVRB 301512Z 3015/3112 36010KT P6SM SCT015 SCT025
  TEMPO 3015/3016 BKN015
  FM301700 36010KT P6SM FEW100
  FM310000 01006KT P6SM FEW250